Terminal Aerodrome Forecast
Issued by NWS Wilmington, NC

Home | Current Version | Previous Version | Text Only | Print | Product List | Glossary On
Versions: 1 2 3 4 5 6 7 8 9 10 11 12 13 14 15 16
000
FTUS42 KILM 271906 AAA
TAFILM
TAF AMD
KILM 271906Z 2719/2818 11007KT P6SM SCT050
     FM280800 17005KT P6SM BKN130
     FM281300 17005KT P6SM BKN045
     FM281600 18009KT P6SM BKN060=

USA.gov is the U.S. government's official web portal to all federal, state and local government web resources and services.